Time;durP1;ratioP1;P1;durP2;ratioP2;P2;SDS_P1;SDS_P2;PMS_P1;PMS_P2;Temp;Humidity;BMP_temperature;BMP_pressure;BME280_temperature;BME280_humidity;BME280_pressure;Samples;Min_cycle;Max_cycle;Signal;HPM_P1;HPM_P2
2021/01/13 00:00:00;;;;;;;15.30;3.03;;;1.80;99.90;;;;;;5109907;28;20047;-45
2021/01/13 00:02:26;;;;;;;22.17;2.65;;;1.70;99.90;;;;;;5111574;28;20036;-45
2021/01/13 00:04:52;;;;;;;9.73;2.30;;;1.70;99.90;;;;;;5099964;28;20127;-46
2021/01/13 00:07:17;;;;;;;11.77;2.60;;;1.70;99.90;;;;;;5104844;28;20051;-46
2021/01/13 00:09:43;;;;;;;13.63;2.90;;;1.60;99.90;;;;;;5108400;28;20095;-46
2021/01/13 00:12:09;;;;;;;16.40;2.40;;;1.60;99.90;;;;;;5107324;28;20035;-47
2021/01/13 00:14:35;;;;;;;11.90;1.95;;;1.60;99.90;;;;;;5103974;28;20028;-45
2021/01/13 00:17:01;;;;;;;16.33;2.38;;;1.60;99.90;;;;;;4917851;28;101590;-46
2021/01/13 00:19:26;;;;;;;12.80;2.92;;;1.60;99.90;;;;;;4719028;29;519282;-43
2021/01/13 00:21:53;;;;;;;15.10;3.33;;;1.60;99.90;;;;;;4633081;30;20043;-44
2021/01/13 00:24:19;;;;;;;9.35;2.22;;;1.60;99.90;;;;;;4567930;31;20748;-45
2021/01/13 00:26:45;;;;;;;15.05;2.60;;;1.60;99.90;;;;;;4520482;31;20367;-46
2021/01/13 00:29:12;;;;;;;12.30;2.60;;;1.50;99.90;;;;;;4515415;31;20163;-48
2021/01/13 00:31:38;;;;;;;21.65;3.40;;;1.50;99.90;;;;;;4515300;31;20038;-45
2021/01/13 00:34:08;;;;;;;13.27;2.78;;;1.50;99.90;;;;;;4515357;31;20422;-45
2021/01/13 00:36:33;;;;;;;10.13;2.43;;;1.50;99.90;;;;;;4514411;31;20573;-46
2021/01/13 00:38:59;;;;;;;10.98;2.97;;;1.50;99.90;;;;;;4540809;31;20284;-45
2021/01/13 00:41:24;;;;;;;13.93;2.80;;;1.50;99.90;;;;;;4515069;31;20088;-44
2021/01/13 00:43:51;;;;;;;14.73;3.22;;;1.60;99.90;;;;;;4515172;31;20035;-44
2021/01/13 00:46:17;;;;;;;13.32;3.90;;;1.50;99.90;;;;;;4540085;31;20046;-45
2021/01/13 00:48:43;;;;;;;11.63;2.50;;;1.50;99.90;;;;;;4515407;31;20058;-44
2021/01/13 00:51:08;;;;;;;12.95;2.95;;;1.50;99.90;;;;;;4514700;31;20034;-45
2021/01/13 00:53:34;;;;;;;13.18;3.75;;;1.50;99.90;;;;;;4540536;31;20093;-46
2021/01/13 00:55:59;;;;;;;9.23;2.20;;;1.50;99.90;;;;;;4540081;31;20416;-44
2021/01/13 00:58:25;;;;;;;21.40;2.25;;;1.50;99.90;;;;;;4514889;31;20042;-46
2021/01/13 01:00:51;;;;;;;15.77;2.20;;;1.50;99.90;;;;;;4514751;31;20070;-45
2021/01/13 01:03:17;;;;;;;17.15;2.45;;;1.50;99.90;;;;;;4514655;31;20271;-44
2021/01/13 01:05:43;;;;;;;6.78;2.50;;;1.50;99.90;;;;;;4513938;31;20406;-44
2021/01/13 01:08:09;;;;;;;13.20;3.35;;;1.50;99.90;;;;;;4514815;31;20046;-44
2021/01/13 01:10:34;;;;;;;19.20;5.18;;;1.50;99.90;;;;;;4514693;31;20456;-45
2021/01/13 01:13:00;;;;;;;12.57;2.83;;;1.50;99.90;;;;;;4540143;31;20121;-45
2021/01/13 01:15:26;;;;;;;7.95;2.05;;;1.50;99.90;;;;;;4493153;31;20135;-46
2021/01/13 01:17:52;;;;;;;18.20;4.18;;;1.50;99.90;;;;;;4477379;31;20447;-45
2021/01/13 01:20:18;;;;;;;15.00;2.72;;;1.50;99.90;;;;;;4424180;32;504103;-45
2021/01/13 01:22:55;;;;;;;14.05;2.50;;;1.50;99.90;;;;;;4503907;31;20379;-45
2021/01/13 01:25:22;;;;;;;14.48;1.98;;;1.50;99.90;;;;;;4513769;31;20097;-45
2021/01/13 01:27:53;;;;;;;8.60;2.38;;;1.50;99.90;;;;;;4514430;31;20051;-45
2021/01/13 01:30:18;;;;;;;;;;;1.60;99.90;;;;;;4514750;31;20031;-44
2021/01/13 01:32:44;;;;;;;9.80;1.83;;;1.50;99.90;;;;;;4514221;31;19919;-47
2021/01/13 01:35:11;;;;;;;14.27;2.20;;;1.50;99.90;;;;;;4513691;31;20042;-47
2021/01/13 01:37:37;;;;;;;18.90;2.97;;;1.50;99.90;;;;;;4526485;31;20038;-45
2021/01/13 01:40:12;;;;;;;16.23;2.53;;;1.60;99.90;;;;;;4514319;31;20046;-44
2021/01/13 01:42:44;;;;;;;15.70;2.58;;;1.60;99.90;;;;;;4514270;31;20042;-46
2021/01/13 01:45:11;;;;;;;17.08;2.38;;;1.60;99.90;;;;;;4513548;31;20047;-46
2021/01/13 01:47:59;;;;;;;19.95;2.70;;;1.60;99.90;;;;;;4514302;31;20113;-44
2021/01/13 01:50:36;;;;;;;19.00;2.60;;;1.60;99.90;;;;;;4514216;31;20068;-44
2021/01/13 01:53:15;;;;;;;10.52;2.28;;;1.70;99.90;;;;;;4526250;31;20039;-44
2021/01/13 01:56:02;;;;;;;12.82;2.40;;;1.70;99.90;;;;;;4512986;31;20045;-48
2021/01/13 01:58:30;;;;;;;10.82;2.88;;;1.70;99.90;;;;;;4514140;31;20049;-45
2021/01/13 02:00:59;;;;;;;11.23;2.70;;;1.80;99.90;;;;;;4513886;31;20038;-46
2021/01/13 02:03:34;;;;;;;20.77;2.90;;;1.80;99.90;;;;;;4513893;31;20030;-45
2021/01/13 02:06:07;;;;;;;13.57;2.47;;;1.80;99.90;;;;;;4513235;31;20179;-49
2021/01/13 02:08:40;;;;;;;7.47;2.63;;;1.80;99.90;;;;;;4513800;31;20396;-45
2021/01/13 02:11:10;;;;;;;18.48;2.97;;;1.80;99.90;;;;;;4513899;31;20046;-44
2021/01/13 02:13:35;;;;;;;10.05;2.35;;;1.80;99.90;;;;;;4513860;31;20042;-45
2021/01/13 02:16:01;;;;;;;9.20;2.67;;;1.80;99.90;;;;;;4504718;31;20125;-44
2021/01/13 02:18:29;;;;;;;9.90;2.33;;;1.80;99.90;;;;;;4584047;31;20415;-45
2021/01/13 02:21:01;;;;;;;17.90;4.18;;;1.80;99.90;;;;;;4677497;30;20514;-46
2021/01/13 02:23:31;;;;;;;14.07;3.10;;;1.80;99.90;;;;;;4747258;30;20560;-46
2021/01/13 02:26:28;;;;;;;8.43;2.22;;;1.90;99.90;;;;;;4730689;30;20036;-45
2021/01/13 02:28:59;;;;;;;13.75;2.20;;;1.90;99.90;;;;;;4731187;30;20041;-45
2021/01/13 02:31:35;;;;;;;14.98;2.70;;;1.90;99.90;;;;;;4731190;30;20264;-44
2021/01/13 02:34:23;;;;;;;12.27;2.38;;;1.80;99.90;;;;;;4730947;30;20541;-44
2021/01/13 02:37:26;;;;;;;12.57;2.13;;;1.90;99.90;;;;;;4730737;30;20036;-45
2021/01/13 02:39:55;;;;;;;10.10;2.22;;;1.90;99.90;;;;;;4730853;30;20117;-46
2021/01/13 02:42:23;;;;;;;17.35;2.33;;;1.90;99.90;;;;;;4731151;30;20383;-44
2021/01/13 02:45:10;;;;;;;17.98;4.75;;;1.90;99.90;;;;;;4730064;30;20079;-43
2021/01/13 02:47:54;;;;;;;9.30;2.40;;;2.00;99.90;;;;;;4730770;30;20573;-44
2021/01/13 02:50:26;;;;;;;10.52;2.33;;;2.00;99.90;;;;;;4730416;30;20224;-47
2021/01/13 02:53:09;;;;;;;11.65;2.88;;;2.00;99.90;;;;;;4730838;30;20098;-44
2021/01/13 02:55:39;;;;;;;11.20;2.63;;;2.00;99.90;;;;;;4730329;30;20074;-47
2021/01/13 02:58:08;;;;;;;8.30;2.28;;;1.90;99.90;;;;;;4730683;30;20073;-45
2021/01/13 03:00:36;;;;;;;9.95;2.63;;;2.00;99.90;;;;;;4730519;30;20148;-46
2021/01/13 03:03:02;;;;;;;7.90;2.20;;;1.90;99.90;;;;;;4730596;30;20492;-44
2021/01/13 03:05:28;;;;;;;10.15;2.63;;;1.90;99.90;;;;;;4729700;30;20048;-45
2021/01/13 03:07:55;;;;;;;9.10;2.30;;;1.90;99.90;;;;;;4730603;30;20091;-45
2021/01/13 03:10:25;;;;;;;12.30;2.10;;;1.90;99.90;;;;;;4730279;30;20025;-45
2021/01/13 03:12:58;;;;;;;10.63;2.53;;;1.80;99.90;;;;;;4730807;30;20039;-45
2021/01/13 03:15:26;;;;;;;14.77;2.40;;;1.80;99.90;;;;;;4729674;30;20048;-44
2021/01/13 03:18:09;;;;;;;11.00;2.17;;;1.80;99.90;;;;;;4773259;29;20061;-44
2021/01/13 03:20:54;;;;;;;13.15;2.83;;;1.80;99.90;;;;;;4806687;29;20034;-44
2021/01/13 03:23:22;;;;;;;7.10;2.10;;;1.80;99.90;;;;;;4837014;29;20124;-45
2021/01/13 03:25:57;;;;;;;12.73;2.38;;;1.80;99.90;;;;;;4837384;29;20053;-44
2021/01/13 03:28:33;;;;;;;8.40;2.10;;;1.80;99.90;;;;;;4838277;29;20022;-44
2021/01/13 03:30:59;;;;;;;15.20;2.28;;;1.70;99.90;;;;;;4837790;29;20040;-45
2021/01/13 03:33:25;;;;;;;13.45;3.28;;;1.70;99.90;;;;;;4837481;29;20034;-45
2021/01/13 03:36:38;;;;;;;8.18;2.05;;;1.70;99.90;;;;;;4839903;29;20480;-43
2021/01/13 03:39:08;;;;;;;11.52;1.88;;;1.70;99.90;;;;;;4840309;29;20045;-43
2021/01/13 03:41:54;;;;;;;18.67;2.58;;;1.60;99.90;;;;;;4841408;29;20030;-45
2021/01/13 03:44:28;;;;;;;7.53;1.83;;;1.60;99.90;;;;;;4841534;29;20033;-44
2021/01/13 03:46:54;;;;;;;10.70;3.60;;;1.60;99.90;;;;;;4841497;29;20034;-45
2021/01/13 03:49:26;;;;;;;15.27;2.72;;;1.60;99.90;;;;;;4841863;29;20033;-44
2021/01/13 03:52:04;;;;;;;11.27;2.35;;;1.60;99.90;;;;;;4840194;29;20749;-45
2021/01/13 03:54:34;;;;;;;15.93;2.15;;;1.60;99.90;;;;;;4840742;29;20058;-47
2021/01/13 03:57:00;;;;;;;14.77;2.60;;;1.60;99.90;;;;;;4840966;29;20060;-45
2021/01/13 03:59:46;;;;;;;15.80;3.05;;;1.60;99.90;;;;;;4841317;29;20125;-44
2021/01/13 04:02:17;;;;;;;17.73;2.13;;;1.60;99.90;;;;;;4841067;29;20113;-44
2021/01/13 04:04:54;;;;;;;9.60;2.25;;;1.60;99.90;;;;;;4840425;29;20045;-44
2021/01/13 04:07:24;;;;;;;12.40;2.55;;;1.60;99.90;;;;;;4840930;29;20434;-45
2021/01/13 04:09:51;;;;;;;15.38;2.75;;;1.60;99.90;;;;;;4841011;29;20030;-46
2021/01/13 04:12:20;;;;;;;11.85;3.08;;;1.60;99.90;;;;;;4841054;29;20108;-43
2021/01/13 04:14:55;;;;;;;14.68;3.10;;;1.60;99.90;;;;;;4840378;29;20097;-44
2021/01/13 04:17:23;;;;;;;7.13;2.38;;;1.60;99.90;;;;;;4828953;29;20627;-43
2021/01/13 04:20:08;;;;;;;16.13;2.97;;;1.60;99.90;;;;;;4911293;28;20093;-44
2021/01/13 04:22:34;;;;;;;21.33;3.35;;;1.60;99.90;;;;;;4915938;29;20071;-44
2021/01/13 04:25:00;;;;;;;8.68;2.20;;;1.60;99.90;;;;;;4921452;29;20074;-45
2021/01/13 04:27:25;;;;;;;14.07;2.10;;;1.60;99.90;;;;;;4949738;28;20027;-44
2021/01/13 04:29:51;;;;;;;15.15;2.28;;;1.60;99.90;;;;;;4972741;28;20039;-45
2021/01/13 04:32:17;;;;;;;14.73;2.55;;;1.60;99.90;;;;;;4972722;28;20636;-47
2021/01/13 04:34:43;;;;;;;12.27;2.63;;;1.60;99.90;;;;;;4972226;28;20069;-45
2021/01/13 04:37:10;;;;;;;16.90;3.15;;;1.60;99.90;;;;;;4972152;28;20101;-46
2021/01/13 04:39:36;;;;;;;8.10;1.90;;;1.60;99.90;;;;;;4972376;28;20451;-44
2021/01/13 04:42:02;;;;;;;16.67;2.95;;;1.60;99.90;;;;;;4972152;28;20416;-44
2021/01/13 04:44:34;;;;;;;9.18;2.50;;;1.60;99.90;;;;;;4967886;28;20502;-45
2021/01/13 04:47:06;;;;;;;17.33;2.78;;;1.60;99.90;;;;;;4959858;28;20052;-44
2021/01/13 04:49:33;;;;;;;9.07;2.00;;;1.70;99.90;;;;;;4957986;28;20110;-44
2021/01/13 04:52:05;;;;;;;13.05;2.97;;;1.60;99.90;;;;;;4963140;28;20019;-45
2021/01/13 04:54:35;;;;;;;13.15;2.70;;;1.60;99.90;;;;;;4957250;28;20051;-44
2021/01/13 04:57:17;;;;;;;16.20;2.20;;;1.70;99.90;;;;;;4960147;28;20019;-45
2021/01/13 05:00:11;;;;;;;11.93;2.47;;;1.70;99.90;;;;;;4961880;28;20059;-48
2021/01/13 05:03:03;;;;;;;16.52;2.75;;;1.70;99.90;;;;;;4959792;28;20098;-44
2021/01/13 05:05:31;;;;;;;11.27;1.92;;;1.80;99.90;;;;;;4958237;28;20400;-44
2021/01/13 05:08:25;;;;;;;16.75;3.13;;;1.80;99.90;;;;;;4969810;28;20477;-45
2021/01/13 05:10:57;;;;;;;6.40;2.05;;;1.80;99.90;;;;;;4972257;28;20114;-44
2021/01/13 05:13:24;;;;;;;17.20;2.08;;;1.90;99.90;;;;;;4971632;28;20476;-44
2021/01/13 05:15:57;;;;;;;13.13;2.42;;;1.90;99.90;;;;;;4974002;28;20209;-46
2021/01/13 05:18:55;;;;;;;14.80;2.90;;;1.90;99.90;;;;;;4994901;28;20067;-45
2021/01/13 05:21:23;;;;;;;14.13;3.55;;;1.90;99.90;;;;;;5029296;28;20040;-45
2021/01/13 05:23:51;;;;;;;19.83;2.45;;;2.00;99.90;;;;;;5028946;28;20018;-46
2021/01/13 05:26:19;;;;;;;13.35;2.30;;;2.10;99.90;;;;;;5028750;28;20188;-45
2021/01/13 05:29:02;;;;;;;14.75;2.33;;;2.10;99.90;;;;;;5030267;28;20025;-44
2021/01/13 05:31:33;;;;;;;15.10;2.15;;;2.20;99.90;;;;;;5028665;28;20029;-44
2021/01/13 05:34:00;;;;;;;11.93;2.72;;;2.20;99.90;;;;;;5030197;28;20029;-45
2021/01/13 05:36:29;;;;;;;17.75;3.22;;;2.30;99.90;;;;;;5028962;28;20037;-47
2021/01/13 05:39:10;;;;;;;11.07;3.67;;;2.30;99.90;;;;;;5030047;28;20028;-44
2021/01/13 05:41:37;;;;;;;10.00;2.63;;;2.40;99.90;;;;;;5029917;28;20047;-45
2021/01/13 05:44:04;;;;;;;15.60;3.30;;;2.40;99.90;;;;;;5029794;28;20113;-47
2021/01/13 05:46:44;;;;;;;22.15;3.85;;;2.40;99.90;;;;;;5029173;28;20025;-46
2021/01/13 05:49:10;;;;;;;17.23;3.10;;;2.40;99.90;;;;;;5029748;28;20034;-47
2021/01/13 05:51:36;;;;;;;22.15;4.32;;;2.50;99.90;;;;;;5029585;28;20025;-45
2021/01/13 05:54:04;;;;;;;14.15;3.42;;;2.50;99.90;;;;;;5029980;28;20493;-44
2021/01/13 05:56:35;;;;;;;18.08;3.08;;;2.60;99.90;;;;;;5029128;28;20077;-48
2021/01/13 05:59:03;;;;;;;17.30;3.35;;;2.60;99.90;;;;;;5029185;28;20158;-46
2021/01/13 06:01:51;;;;;;;14.98;3.20;;;2.50;99.90;;;;;;5027672;28;20505;-47
2021/01/13 06:04:18;;;;;;;18.55;3.35;;;2.50;99.90;;;;;;5020179;28;20027;-46
2021/01/13 06:07:04;;;;;;;13.02;3.38;;;2.40;99.90;;;;;;5028842;28;20380;-46
2021/01/13 06:09:30;;;;;;;18.48;4.72;;;2.40;99.90;;;;;;5029067;28;20060;-45
2021/01/13 06:11:56;;;;;;;14.93;3.70;;;2.30;99.90;;;;;;5029602;28;20033;-46
2021/01/13 06:14:26;;;;;;;10.55;3.58;;;2.40;99.90;;;;;;5022520;28;20033;-45
2021/01/13 06:16:53;;;;;;;8.93;3.60;;;2.30;99.90;;;;;;5025825;28;20029;-45
2021/01/13 06:19:20;;;;;;;20.17;4.25;;;2.30;99.90;;;;;;5022354;28;483632;-45
2021/01/13 06:21:46;;;;;;;15.45;4.68;;;2.30;99.90;;;;;;5057749;28;20028;-47
2021/01/13 06:24:13;;;;;;;17.33;3.55;;;2.30;99.90;;;;;;5059406;28;20504;-47
2021/01/13 06:26:52;;;;;;;10.95;3.95;;;2.30;99.90;;;;;;5046260;28;20147;-46
2021/01/13 06:29:23;;;;;;;15.88;4.10;;;2.30;99.90;;;;;;5049009;28;20053;-45
2021/01/13 06:31:57;;;;;;;13.52;3.97;;;2.30;99.90;;;;;;5038999;28;20182;-45
2021/01/13 06:34:36;;;;;;;9.00;3.78;;;2.30;99.90;;;;;;5038941;28;20036;-44
2021/01/13 06:37:07;;;;;;;14.63;4.45;;;2.20;99.90;;;;;;5039204;28;20028;-45
2021/01/13 06:39:33;;;;;;;15.82;3.67;;;2.20;99.90;;;;;;5038705;28;20529;-45
2021/01/13 06:42:00;;;;;;;18.90;4.93;;;2.10;99.90;;;;;;5037514;28;20066;-47
2021/01/13 06:44:25;;;;;;;14.65;3.80;;;2.20;99.90;;;;;;5038945;28;20009;-45
2021/01/13 06:47:01;;;;;;;12.63;4.72;;;2.20;99.90;;;;;;5038075;28;20014;-47
2021/01/13 06:49:27;;;;;;;17.75;4.25;;;2.20;99.90;;;;;;5036587;28;20104;-46
2021/01/13 06:51:52;;;;;;;31.45;4.78;;;2.10;99.90;;;;;;5028906;28;20175;-46
2021/01/13 06:54:21;;;;;;;18.02;3.95;;;2.20;99.90;;;;;;5048442;28;20036;-45
2021/01/13 06:56:49;;;;;;;18.33;4.28;;;2.20;99.90;;;;;;5048542;28;20079;-46
2021/01/13 06:59:16;;;;;;;10.63;3.78;;;2.20;99.90;;;;;;5047502;28;20036;-45
2021/01/13 07:01:49;;;;;;;13.23;5.30;;;2.20;99.90;;;;;;5047160;28;20272;-45
2021/01/13 07:04:14;;;;;;;16.40;4.22;;;2.20;99.90;;;;;;5045905;28;20483;-45
2021/01/13 07:06:40;;;;;;;10.27;4.07;;;2.30;99.90;;;;;;5026797;28;20151;-45
2021/01/13 07:09:05;;;;;;;11.57;4.35;;;2.30;99.90;;;;;;5045695;28;20470;-45
2021/01/13 07:11:38;;;;;;;12.27;5.28;;;2.30;99.90;;;;;;5045788;28;20029;-46
2021/01/13 07:14:05;;;;;;;20.42;5.60;;;2.40;99.90;;;;;;5046493;28;20053;-47
2021/01/13 07:16:33;;;;;;;13.25;5.72;;;2.40;99.90;;;;;;5047186;28;20116;-44
2021/01/13 07:19:02;;;;;;;13.23;6.10;;;2.40;99.90;;;;;;5031819;28;20028;-45
2021/01/13 07:21:36;;;;;;;16.55;6.43;;;2.40;99.90;;;;;;5047839;28;20394;-43
2021/01/13 07:24:09;;;;;;;14.98;5.18;;;2.40;99.90;;;;;;5048088;28;20032;-47
2021/01/13 07:26:35;;;;;;;18.67;5.38;;;2.40;99.90;;;;;;5047442;28;20533;-46
2021/01/13 07:29:01;;;;;;;22.00;7.18;;;2.40;99.90;;;;;;5047780;28;20037;-45
2021/01/13 07:31:30;;;;;;;14.50;5.53;;;2.50;99.90;;;;;;5048183;28;20479;-48
2021/01/13 07:34:02;;;;;;;16.13;5.78;;;2.50;99.90;;;;;;5048535;28;20036;-44
2021/01/13 07:36:31;;;;;;;17.45;5.22;;;2.50;99.90;;;;;;5047666;28;20060;-46
2021/01/13 07:39:04;;;;;;;15.02;5.53;;;2.50;99.90;;;;;;5048117;28;20056;-47
2021/01/13 07:42:00;;;;;;;16.30;5.78;;;2.60;99.90;;;;;;5047828;28;20025;-45
2021/01/13 07:44:45;;;;;;;14.70;5.05;;;2.60;99.90;;;;;;5047648;28;20021;-46
2021/01/13 07:47:26;;;;;;;18.02;5.53;;;2.50;99.90;;;;;;5047747;28;20025;-46
2021/01/13 07:50:03;;;;;;;20.77;5.75;;;2.50;99.90;;;;;;5046690;28;20468;-45
2021/01/13 07:52:36;;;;;;;10.70;4.63;;;2.50;99.90;;;;;;5047011;28;20032;-47
2021/01/13 07:55:03;;;;;;;15.15;6.00;;;2.60;99.90;;;;;;5047677;28;20036;-46
2021/01/13 07:57:42;;;;;;;19.40;5.10;;;2.60;99.90;;;;;;5047924;28;20036;-46
2021/01/13 08:00:13;;;;;;;14.98;4.68;;;2.60;99.90;;;;;;5047518;28;20356;-45
2021/01/13 08:02:58;;;;;;;9.40;4.03;;;2.60;99.90;;;;;;5047542;28;20449;-45
2021/01/13 08:05:43;;;;;;;13.60;5.63;;;2.60;99.90;;;;;;5044127;28;20029;-48
2021/01/13 08:08:11;;;;;;;12.88;4.22;;;2.60;99.90;;;;;;5045568;28;20444;-45
2021/01/13 08:10:41;;;;;;;27.48;7.13;;;2.70;99.90;;;;;;5046605;28;20029;-45
2021/01/13 08:13:32;;;;;;;10.00;3.67;;;2.80;99.90;;;;;;5047066;28;20033;-44
2021/01/13 08:16:28;;;;;;;8.63;3.30;;;2.80;99.90;;;;;;5046051;28;20029;-46
2021/01/13 08:19:14;;;;;;;11.13;3.72;;;2.90;99.90;;;;;;5032123;28;20216;-46
2021/01/13 08:21:43;;;;;;;7.78;3.30;;;2.90;99.90;;;;;;5027417;28;20457;-46
2021/01/13 08:24:29;;;;;;;9.07;2.85;;;2.90;99.90;;;;;;5028156;28;20285;-48
2021/01/13 08:26:58;;;;;;;13.25;3.00;;;2.90;99.90;;;;;;5028670;28;20021;-44
2021/01/13 08:29:33;;;;;;;7.63;2.60;;;2.90;99.90;;;;;;5030258;28;20117;-45
2021/01/13 08:32:12;;;;;;;11.13;2.65;;;2.90;99.90;;;;;;5030591;28;20026;-45
2021/01/13 08:34:44;;;;;;;7.25;2.47;;;2.90;99.90;;;;;;5028120;28;20462;-47
2021/01/13 08:37:11;;;;;;;8.15;2.65;;;2.90;99.90;;;;;;5030438;28;20057;-45
2021/01/13 08:39:38;;;;;;;7.03;2.85;;;3.00;99.90;;;;;;5029315;28;20025;-44
2021/01/13 08:42:20;;;;;;;12.82;4.75;;;3.00;99.90;;;;;;5026759;28;20022;-45
2021/01/13 08:44:47;;;;;;;15.52;3.50;;;3.00;99.90;;;;;;5027684;28;20014;-49
2021/01/13 08:47:12;;;;;;;8.32;3.47;;;3.00;99.90;;;;;;5030165;28;20022;-46
2021/01/13 08:49:38;;;;;;;8.45;4.35;;;3.10;99.90;;;;;;5030290;28;20040;-45
2021/01/13 08:52:18;;;;;;;11.63;4.03;;;3.10;99.90;;;;;;5030094;28;20383;-45
2021/01/13 08:54:48;;;;;;;12.00;4.38;;;3.10;99.90;;;;;;5029062;28;20104;-46
2021/01/13 08:57:14;;;;;;;13.73;4.80;;;3.10;99.90;;;;;;5030299;28;20112;-46
2021/01/13 08:59:45;;;;;;;14.23;4.72;;;3.20;99.90;;;;;;5029763;28;20509;-46
2021/01/13 09:02:15;;;;;;;15.23;4.28;;;3.20;99.90;;;;;;5029926;28;20021;-45
2021/01/13 09:04:55;;;;;;;9.13;4.05;;;3.20;99.90;;;;;;5029041;28;20615;-44
2021/01/13 09:07:26;;;;;;;13.25;4.00;;;3.20;99.90;;;;;;5029126;28;20106;-46
2021/01/13 09:10:11;;;;;;;10.35;3.22;;;3.30;99.90;;;;;;5029884;28;20034;-44
2021/01/13 09:12:39;;;;;;;10.52;3.58;;;3.30;99.90;;;;;;5028485;28;20116;-45
2021/01/13 09:15:08;;;;;;;12.88;3.35;;;3.30;99.90;;;;;;5027538;28;20245;-46
2021/01/13 09:17:39;;;;;;;11.68;3.38;;;3.40;99.90;;;;;;5029626;28;20060;-46
2021/01/13 09:20:05;;;;;;;;;;;3.40;99.90;;;;;;5030027;28;20091;-47
2021/01/13 09:22:50;;;;;;;8.90;3.08;;;3.40;99.90;;;;;;5029083;28;19947;-45
2021/01/13 09:25:29;;;;;;;8.95;3.53;;;3.40;99.90;;;;;;5029028;28;20126;-46
2021/01/13 09:28:13;;;;;;;16.33;4.10;;;3.50;99.90;;;;;;5030364;28;20091;-48
2021/01/13 09:30:41;;;;;;;10.77;3.53;;;3.50;99.90;;;;;;5029004;28;20037;-47
2021/01/13 09:33:14;;;;;;;10.82;2.95;;;3.60;99.90;;;;;;5028657;28;20032;-47
2021/01/13 09:35:41;;;;;;;12.70;3.20;;;3.70;99.90;;;;;;5027459;28;20033;-45
2021/01/13 09:38:13;;;;;;;7.50;2.78;;;3.80;99.90;;;;;;5028760;28;20549;-45
2021/01/13 09:40:55;;;;;;;13.38;3.90;;;3.90;99.90;;;;;;5027505;28;20040;-45
2021/01/13 09:43:25;;;;;;;11.15;2.63;;;3.90;99.90;;;;;;5026594;28;20026;-48
2021/01/13 09:46:03;;;;;;;6.40;2.80;;;3.90;99.90;;;;;;5028640;28;20391;-46
2021/01/13 09:48:30;;;;;;;8.13;2.60;;;3.90;99.90;;;;;;5029284;28;20071;-46
2021/01/13 09:51:07;;;;;;;12.40;3.08;;;3.90;99.90;;;;;;5029298;28;20021;-48
2021/01/13 09:53:35;;;;;;;8.88;3.72;;;3.90;99.90;;;;;;5028517;28;20398;-45
2021/01/13 09:56:03;;;;;;;16.00;4.30;;;4.00;99.90;;;;;;5028529;28;20029;-47
2021/01/13 09:58:39;;;;;;;8.55;3.55;;;4.00;99.90;;;;;;5010000;28;20105;-45
2021/01/13 10:01:14;;;;;;;11.25;4.15;;;3.90;99.90;;;;;;5028797;28;20029;-44
2021/01/13 10:03:42;;;;;;;11.55;3.60;;;3.90;99.90;;;;;;5027039;28;20017;-48
2021/01/13 10:06:13;;;;;;;11.77;4.32;;;3.90;99.90;;;;;;5028401;28;20025;-44
2021/01/13 10:08:38;;;;;;;8.43;2.58;;;4.00;99.90;;;;;;5026292;28;20018;-45
2021/01/13 10:11:04;;;;;;;18.05;3.75;;;4.10;99.90;;;;;;5028866;28;20498;-45
2021/01/13 10:13:30;;;;;;;9.32;3.10;;;4.10;99.90;;;;;;5028568;28;20515;-45
2021/01/13 10:16:01;;;;;;;13.00;3.42;;;4.30;99.90;;;;;;5028558;28;20032;-48
2021/01/13 10:18:27;;;;;;;11.80;3.90;;;4.20;99.90;;;;;;5028367;28;20107;-45
2021/01/13 10:21:01;;;;;;;14.18;4.10;;;4.20;99.90;;;;;;5028560;28;20057;-45
2021/01/13 10:23:28;;;;;;;9.90;4.03;;;4.30;99.90;;;;;;5026897;28;20029;-46
2021/01/13 10:26:06;;;;;;;10.65;3.78;;;4.20;99.90;;;;;;5027956;28;20024;-47
2021/01/13 10:28:33;;;;;;;14.15;4.72;;;4.20;99.90;;;;;;5026640;28;20043;-46
2021/01/13 10:31:00;;;;;;;13.48;4.50;;;4.20;99.90;;;;;;5028237;28;20036;-47
2021/01/13 10:33:41;;;;;;;9.73;3.45;;;4.20;99.90;;;;;;5028336;28;20025;-44
2021/01/13 10:36:07;;;;;;;8.63;3.67;;;4.20;99.90;;;;;;5026211;28;20034;-47
2021/01/13 10:38:37;;;;;;;11.20;3.53;;;4.20;99.90;;;;;;5028520;28;20037;-45
2021/01/13 10:41:03;;;;;;;5.45;3.00;;;4.20;99.90;;;;;;5028312;28;20098;-46
2021/01/13 10:43:32;;;;;;;6.35;2.88;;;4.30;99.90;;;;;;5028290;28;20527;-44
2021/01/13 10:45:58;;;;;;;11.45;3.15;;;4.30;99.90;;;;;;5028098;28;20026;-49
2021/01/13 10:48:24;;;;;;;10.57;3.20;;;4.30;99.90;;;;;;5028357;28;20037;-46
2021/01/13 10:50:53;;;;;;;6.82;2.85;;;4.30;99.90;;;;;;5028082;28;20465;-43
2021/01/13 10:53:32;;;;;;;6.75;2.70;;;4.20;99.90;;;;;;5027856;28;20034;-46
2021/01/13 10:56:08;;;;;;;8.48;2.97;;;4.30;99.90;;;;;;5028122;28;20041;-45
2021/01/13 10:58:36;;;;;;;11.27;2.50;;;4.00;99.90;;;;;;5028297;28;20423;-46
2021/01/13 11:01:05;;;;;;;9.32;3.17;;;4.10;99.90;;;;;;5027772;28;20111;-45
2021/01/13 11:03:33;;;;;;;9.95;3.70;;;4.10;99.90;;;;;;5028065;28;20032;-45
2021/01/13 11:05:59;;;;;;;8.35;3.60;;;4.10;99.90;;;;;;5026344;28;20128;-44
2021/01/13 11:08:29;;;;;;;7.00;3.05;;;4.10;99.90;;;;;;5029156;28;20034;-46
2021/01/13 11:11:06;;;;;;;8.77;3.80;;;4.10;99.90;;;;;;5029155;28;20132;-46
2021/01/13 11:13:42;;;;;;;5.10;3.20;;;4.10;99.90;;;;;;5029289;28;20479;-45
2021/01/13 11:16:08;;;;;;;11.27;4.10;;;4.10;99.90;;;;;;5027747;28;20120;-45
2021/01/13 11:18:34;;;;;;;10.80;3.53;;;4.00;99.90;;;;;;5028595;28;20120;-46
2021/01/13 11:21:08;;;;;;;9.10;2.65;;;4.10;99.90;;;;;;5028967;28;20136;-45
2021/01/13 11:23:43;;;;;;;11.98;4.60;;;4.10;99.90;;;;;;5029558;28;20044;-47
2021/01/13 11:26:09;;;;;;;15.88;3.97;;;4.10;99.90;;;;;;5028160;28;20028;-48
2021/01/13 11:28:36;;;;;;;15.15;3.80;;;4.30;99.90;;;;;;5028348;28;20033;-45
2021/01/13 11:31:04;;;;;;;11.38;3.50;;;4.20;99.90;;;;;;5027937;28;20025;-46
2021/01/13 11:33:30;;;;;;;9.57;3.17;;;4.20;99.90;;;;;;5028043;28;20032;-44
2021/01/13 11:35:55;;;;;;;8.23;2.88;;;4.30;99.90;;;;;;5027435;28;20026;-46
2021/01/13 11:38:58;;;;;;;14.13;3.60;;;4.20;99.90;;;;;;5027653;28;20518;-46
2021/01/13 11:42:12;;;;;;;9.85;3.17;;;4.20;99.90;;;;;;5025672;28;20022;-45
2021/01/13 11:44:47;;;;;;;10.57;3.40;;;4.30;99.90;;;;;;5007786;28;20041;-45
2021/01/13 11:47:15;;;;;;;14.82;3.30;;;4.40;99.90;;;;;;5028055;28;20029;-46
2021/01/13 11:49:44;;;;;;;14.25;3.85;;;4.30;99.90;;;;;;5029760;28;20160;-45
2021/01/13 11:52:14;;;;;;;11.15;3.17;;;4.30;99.90;;;;;;5029440;28;20664;-47
2021/01/13 11:54:45;;;;;;;14.48;3.60;;;4.20;99.90;;;;;;5028911;28;20059;-48
2021/01/13 11:57:22;;;;;;;14.18;3.17;;;4.20;99.90;;;;;;5031940;28;20041;-48
2021/01/13 11:59:49;;;;;;;13.27;3.50;;;4.30;99.90;;;;;;5033134;28;20112;-47
2021/01/13 12:02:30;;;;;;;13.38;4.20;;;4.30;99.90;;;;;;5032472;28;20616;-46
2021/01/13 12:04:56;;;;;;;10.27;3.00;;;4.20;99.90;;;;;;5030454;28;20160;-43
2021/01/13 12:07:21;;;;;;;10.05;3.47;;;4.30;99.90;;;;;;5031768;28;20061;-44
2021/01/13 12:10:11;;;;;;;21.42;5.45;;;4.10;99.90;;;;;;5031665;28;20033;-45
2021/01/13 12:12:38;;;;;;;9.40;3.03;;;4.10;99.90;;;;;;5033352;28;20030;-45
2021/01/13 12:15:09;;;;;;;15.00;3.08;;;4.10;99.90;;;;;;5032515;28;20753;-44
2021/01/13 12:17:48;;;;;;;10.52;2.72;;;4.10;99.90;;;;;;5033019;28;20029;-44
2021/01/13 12:20:14;;;;;;;15.10;3.25;;;4.20;99.90;;;;;;5033102;28;20099;-45
2021/01/13 12:22:39;;;;;;;21.83;4.78;;;4.20;99.90;;;;;;5031553;28;20514;-46
2021/01/13 12:25:05;;;;;;;12.73;3.47;;;4.10;99.90;;;;;;5032131;28;20053;-46
2021/01/13 12:27:31;;;;;;;17.52;3.65;;;4.20;99.90;;;;;;5032178;28;20685;-47
2021/01/13 12:30:09;;;;;;;18.08;3.65;;;4.30;99.90;;;;;;5031657;28;20025;-47
2021/01/13 12:32:36;;;;;;;13.80;3.35;;;4.50;99.90;;;;;;5029873;28;20021;-46
2021/01/13 12:35:02;;;;;;;13.63;3.25;;;4.50;99.90;;;;;;5031028;28;20029;-47
2021/01/13 12:37:28;;;;;;;15.48;3.33;;;4.70;99.90;;;;;;5031820;28;20025;-44
2021/01/13 12:39:59;;;;;;;14.20;4.20;;;4.70;99.90;;;;;;5032360;28;20536;-45
2021/01/13 12:42:33;;;;;;;11.18;3.30;;;4.80;99.90;;;;;;5032476;28;20018;-45
2021/01/13 12:44:59;;;;;;;12.60;3.35;;;4.80;99.90;;;;;;5028869;28;20014;-45
2021/01/13 12:47:28;;;;;;;8.82;3.33;;;4.70;99.90;;;;;;5031355;28;20710;-45
2021/01/13 12:49:54;;;;;;;18.48;4.50;;;4.70;99.90;;;;;;5031650;28;20030;-48
2021/01/13 12:52:20;;;;;;;23.80;4.57;;;4.70;99.90;;;;;;5030809;28;20471;-46
2021/01/13 12:54:46;;;;;;;13.93;4.40;;;4.60;99.90;;;;;;5029852;28;20028;-47
2021/01/13 12:57:12;;;;;;;14.50;3.17;;;4.40;99.90;;;;;;5029547;28;20021;-47
2021/01/13 12:59:39;;;;;;;14.57;4.43;;;4.30;99.90;;;;;;5030607;28;20498;-46
2021/01/13 13:02:06;;;;;;;17.05;3.92;;;4.20;99.90;;;;;;5030837;28;20036;-45
2021/01/13 13:04:31;;;;;;;21.27;4.22;;;4.10;99.90;;;;;;5030041;28;20025;-45
2021/01/13 13:06:57;;;;;;;10.73;3.28;;;4.10;99.90;;;;;;5028486;28;20041;-50
2021/01/13 13:09:22;;;;;;;11.30;3.30;;;4.10;99.90;;;;;;5031920;28;20659;-46
2021/01/13 13:11:49;;;;;;;12.98;3.28;;;4.10;99.90;;;;;;5031388;28;20029;-47